Frances Anne — WDE8555 — position and weather

sailwx.info

Track history (hours):
 
Tides and Currents Weather Stations Pressure Air Temp Water Temp Dewpoint Dewpoint Depression Visibility Wind Speed Wind Dir Waves Ship Positions

Frances Anne

Owner: Frances Anne Inc., West Creek, NJ. More information available from US FCC via Universal Licensing System and Coast Guard Vessel Documentation Center.

Last reported at 2015-Aug-03 20:24 UTC. Time now 2015-Aug-03 21:26 UTC.
Position N 39°46' W 074°07'.

Type: Fishing. MMSI: 367406910.

Date/timePositionNaut miles runAvg speedWind from/ knotsBaromVisibWave heightAir tempDewpointWater temp
2015-Aug-03 20:24N 39°46' W 074°07'0 0.0
2015-Aug-03 19:24N 39°46' W 074°07'0 0.0
2015-Aug-03 18:30N 39°46' W 074°07'0 0.0
2015-Aug-03 17:30N 39°46' W 074°07'0 0.0
2015-Aug-03 16:24N 39°46' W 074°07'0 0.0
2015-Aug-03 15:30N 39°46' W 074°07'0 0.0
2015-Aug-03 14:24N 39°46' W 074°07'0 0.0
2015-Aug-03 13:30N 39°46' W 074°07'0 0.0
2015-Aug-03 12:31N 39°46' W 074°07'0 0.0
2015-Aug-03 11:33N 39°46' W 074°07'0 0.0
2015-Aug-03 10:33N 39°46' W 074°07'0 0.0
2015-Aug-03 09:33N 39°46' W 074°07'0 0.0
2015-Aug-03 08:32N 39°46' W 074°07'0 0.0
2015-Aug-03 07:33N 39°46' W 074°07'0 0.0
2015-Aug-03 06:33N 39°46' W 074°07'0 0.0
2015-Aug-03 05:33N 39°46' W 074°07'0 0.0
2015-Aug-03 04:33N 39°46' W 074°07'0 0.0
2015-Aug-03 03:33N 39°46' W 074°07'0 0.0
2015-Aug-03 02:33N 39°46' W 074°07'0 0.0
2015-Aug-03 01:30N 39°46' W 074°07'0 0.0
2015-Aug-03 00:30N 39°46' W 074°07'0 0.0
2015-Aug-02 23:33N 39°46' W 074°07'0 0.0
2015-Aug-02 21:30N 39°46' W 074°07'0 0.0
2015-Aug-02 20:30N 39°46' W 074°07'0 0.0
2015-Aug-02 19:30N 39°46' W 074°07'0 0.1
2015-Aug-02 18:31N 39°46' W 074°07'0 0.0
2015-Aug-02 17:31N 39°46' W 074°07'0 0.0
2015-Aug-02 16:13N 39°46' W 074°07'0 0.0
2015-Aug-02 15:31N 39°46' W 074°07'0 0.0
2015-Aug-02 14:13N 39°46' W 074°07'0 0.0
2015-Aug-02 12:31N 39°46' W 074°07'0 0.0
2015-Aug-02 11:30N 39°46' W 074°07'0 0.0
2015-Aug-02 10:24N 39°46' W 074°07'0 0.0
2015-Aug-02 08:30N 39°46' W 074°07'0 0.0
2015-Aug-02 07:24N 39°46' W 074°07'0 0.0
2015-Aug-02 06:18N 39°46' W 074°07'0 0.0
2015-Aug-02 05:30N 39°46' W 074°07'0 0.0
2015-Aug-02 04:30N 39°46' W 074°07'0 0.0
2015-Aug-02 03:30N 39°46' W 074°07'0 0.0
2015-Aug-02 02:24N 39°46' W 074°07'0 0.0
2015-Aug-02 01:18N 39°46' W 074°07'0 0.0
2015-Aug-02 00:24N 39°46' W 074°07'0 0.0
2015-Aug-01 23:18N 39°46' W 074°07'0 0.0
2015-Aug-01 22:24N 39°46' W 074°07'0 0.0
2015-Aug-01 21:24N 39°46' W 074°07'0 0.0
2015-Aug-01 20:30N 39°46' W 074°07'0 0.0
2015-Aug-01 19:30N 39°46' W 074°07'0 0.0
2015-Aug-01 18:18N 39°46' W 074°07'0 0.0
2015-Aug-01 17:30N 39°46' W 074°07'0 0.0
2015-Aug-01 16:30N 39°46' W 074°07'0 0.0
2015-Aug-01 15:30N 39°46' W 074°07'0 0.0
2015-Aug-01 14:30N 39°46' W 074°07'0 0.0
2015-Aug-01 12:12N 39°46' W 074°07'4 6.8
2015-Aug-01 11:33N 39°46' W 074°01'8 7.7
2015-Aug-01 10:33N 39°47' W 073°51'8 7.8
2015-Aug-01 09:33N 39°49' W 073°41'8 7.8
2015-Aug-01 08:33N 39°49' W 073°31'16 7.8
2015-Aug-01 06:33N 39°52' W 073°11'7 7.4
2015-Aug-01 05:33N 39°53' W 073°01'7 7.1
2015-Aug-01 04:33N 39°54' W 072°52'7 7.3
2015-Aug-01 03:33N 39°55' W 072°43'7 7.4
2015-Aug-01 02:33N 39°56' W 072°33'11 7.4
2015-Aug-01 01:07N 39°58' W 072°19'4 7.3
2015-Aug-01 00:33N 39°58' W 072°14'8 7.2
2015-Jul-31 23:22N 39°60' W 072°03'6 7.2
2015-Jul-31 22:33N 40°01' W 071°56'7 7.4
2015-Jul-31 21:33N 40°02' W 071°46'68 7.4
2015-Jul-31 12:24N 40°10' W 070°18'5 6.3
2015-Jul-31 11:33N 40°10' W 070°11'7 7.0
2015-Jul-31 10:29N 40°11' W 070°02'70 6.9
2015-Jul-31 00:15N 40°20' W 068°30'5 6.9
2015-Jul-30 23:33N 40°20' W 068°24'15 7.1
2015-Jul-30 21:31N 40°21' W 068°05'8 6.9
2015-Jul-30 20:22N 40°21' W 067°54'6 0.5
2015-Jul-30 07:09N 40°15' W 067°52'1 1.2
2015-Jul-30 06:30N 40°15' W 067°53'1 1.1
2015-Jul-30 05:33N 40°15' W 067°54'1 0.9
2015-Jul-30 04:17N 40°15' W 067°55'1 0.9
2015-Jul-30 03:32N 40°15' W 067°56'1 1.1
2015-Jul-30 02:33N 40°15' W 067°58'5 4.9
2015-Jul-30 01:33N 40°15' W 067°51'7 6.6
2015-Jul-30 00:33N 40°17' W 067°43'7 6.6
2015-Jul-29 23:33N 40°18' W 067°34'7 6.7
2015-Jul-29 22:31N 40°21' W 067°26'3 2.7
2015-Jul-29 21:33N 40°20' W 067°23'  
Track history (hours):
 
Tides and Currents Weather Stations Pressure Air Temp Water Temp Dewpoint Dewpoint Depression Visibility Wind Speed Wind Dir Waves Ship Positions

Frances Anne

Owner: Frances Anne Inc., West Creek, NJ. More information available from US FCC via Universal Licensing System and Coast Guard Vessel Documentation Center.

Last reported at 2015-Aug-03 20:24 UTC. Time now 2015-Aug-03 21:26 UTC.
Position N 39°46' W 074°07'.

Type: Fishing. MMSI: 367406910.

Date/timePositionNaut miles runAvg speedWind from/ knotsBaromVisibWave heightAir tempDewpointWater temp
2015-Aug-03 20:24N 39°46' W 074°07'0 0.0
2015-Aug-03 19:24N 39°46' W 074°07'0 0.0
2015-Aug-03 18:30N 39°46' W 074°07'0 0.0
2015-Aug-03 17:30N 39°46' W 074°07'0 0.0
2015-Aug-03 16:24N 39°46' W 074°07'0 0.0
2015-Aug-03 15:30N 39°46' W 074°07'0 0.0
2015-Aug-03 14:24N 39°46' W 074°07'0 0.0
2015-Aug-03 13:30N 39°46' W 074°07'0 0.0
2015-Aug-03 12:31N 39°46' W 074°07'0 0.0
2015-Aug-03 11:33N 39°46' W 074°07'0 0.0
2015-Aug-03 10:33N 39°46' W 074°07'0 0.0
2015-Aug-03 09:33N 39°46' W 074°07'0 0.0
2015-Aug-03 08:32N 39°46' W 074°07'0 0.0
2015-Aug-03 07:33N 39°46' W 074°07'0 0.0
2015-Aug-03 06:33N 39°46' W 074°07'0 0.0
2015-Aug-03 05:33N 39°46' W 074°07'0 0.0
2015-Aug-03 04:33N 39°46' W 074°07'0 0.0
2015-Aug-03 03:33N 39°46' W 074°07'0 0.0
2015-Aug-03 02:33N 39°46' W 074°07'0 0.0
2015-Aug-03 01:30N 39°46' W 074°07'0 0.0
2015-Aug-03 00:30N 39°46' W 074°07'0 0.0
2015-Aug-02 23:33N 39°46' W 074°07'0 0.0
2015-Aug-02 21:30N 39°46' W 074°07'0 0.0
2015-Aug-02 20:30N 39°46' W 074°07'0 0.0
2015-Aug-02 19:30N 39°46' W 074°07'0 0.1
2015-Aug-02 18:31N 39°46' W 074°07'0 0.0
2015-Aug-02 17:31N 39°46' W 074°07'0 0.0
2015-Aug-02 16:13N 39°46' W 074°07'0 0.0
2015-Aug-02 15:31N 39°46' W 074°07'0 0.0
2015-Aug-02 14:13N 39°46' W 074°07'0 0.0
2015-Aug-02 12:31N 39°46' W 074°07'0 0.0
2015-Aug-02 11:30N 39°46' W 074°07'0 0.0
2015-Aug-02 10:24N 39°46' W 074°07'0 0.0
2015-Aug-02 08:30N 39°46' W 074°07'0 0.0
2015-Aug-02 07:24N 39°46' W 074°07'0 0.0
2015-Aug-02 06:18N 39°46' W 074°07'0 0.0
2015-Aug-02 05:30N 39°46' W 074°07'0 0.0
2015-Aug-02 04:30N 39°46' W 074°07'0 0.0
2015-Aug-02 03:30N 39°46' W 074°07'0 0.0
2015-Aug-02 02:24N 39°46' W 074°07'0 0.0
2015-Aug-02 01:18N 39°46' W 074°07'0 0.0
2015-Aug-02 00:24N 39°46' W 074°07'0 0.0
2015-Aug-01 23:18N 39°46' W 074°07'0 0.0
2015-Aug-01 22:24N 39°46' W 074°07'0 0.0
2015-Aug-01 21:24N 39°46' W 074°07'0 0.0
2015-Aug-01 20:30N 39°46' W 074°07'0 0.0
2015-Aug-01 19:30N 39°46' W 074°07'0 0.0
2015-Aug-01 18:18N 39°46' W 074°07'0 0.0
2015-Aug-01 17:30N 39°46' W 074°07'0 0.0
2015-Aug-01 16:30N 39°46' W 074°07'0 0.0
2015-Aug-01 15:30N 39°46' W 074°07'0 0.0
2015-Aug-01 14:30N 39°46' W 074°07'0 0.0
2015-Aug-01 12:12N 39°46' W 074°07'4 6.8
2015-Aug-01 11:33N 39°46' W 074°01'8 7.7
2015-Aug-01 10:33N 39°47' W 073°51'8 7.8
2015-Aug-01 09:33N 39°49' W 073°41'8 7.8
2015-Aug-01 08:33N 39°49' W 073°31'16 7.8
2015-Aug-01 06:33N 39°52' W 073°11'7 7.4
2015-Aug-01 05:33N 39°53' W 073°01'7 7.1
2015-Aug-01 04:33N 39°54' W 072°52'7 7.3
2015-Aug-01 03:33N 39°55' W 072°43'7 7.4
2015-Aug-01 02:33N 39°56' W 072°33'11 7.4
2015-Aug-01 01:07N 39°58' W 072°19'4 7.3
2015-Aug-01 00:33N 39°58' W 072°14'8 7.2
2015-Jul-31 23:22N 39°60' W 072°03'6 7.2
2015-Jul-31 22:33N 40°01' W 071°56'7 7.4
2015-Jul-31 21:33N 40°02' W 071°46'68 7.4
2015-Jul-31 12:24N 40°10' W 070°18'5 6.3
2015-Jul-31 11:33N 40°10' W 070°11'7 7.0
2015-Jul-31 10:29N 40°11' W 070°02'70 6.9
2015-Jul-31 00:15N 40°20' W 068°30'5 6.9
2015-Jul-30 23:33N 40°20' W 068°24'15 7.1
2015-Jul-30 21:31N 40°21' W 068°05'8 6.9
2015-Jul-30 20:22N 40°21' W 067°54'6 0.5
2015-Jul-30 07:09N 40°15' W 067°52'1 1.2
2015-Jul-30 06:30N 40°15' W 067°53'1 1.1
2015-Jul-30 05:33N 40°15' W 067°54'1 0.9
2015-Jul-30 04:17N 40°15' W 067°55'1 0.9
2015-Jul-30 03:32N 40°15' W 067°56'1 1.1
2015-Jul-30 02:33N 40°15' W 067°58'5 4.9
2015-Jul-30 01:33N 40°15' W 067°51'7 6.6
2015-Jul-30 00:33N 40°17' W 067°43'7 6.6
2015-Jul-29 23:33N 40°18' W 067°34'7 6.7
2015-Jul-29 22:31N 40°21' W 067°26'3 2.7
2015-Jul-29 21:33N 40°20' W 067°23'  

Dump ship's entire track history